sensor_id;sensor_type;location;lat;lon;timestamp;temperature;humidity
71563;DHT22;59391;52.504;13.438;2022-12-11T00:01:13;1.40;61.60
71563;DHT22;59391;52.504;13.438;2022-12-11T00:03:41;1.40;62.00
71563;DHT22;59391;52.504;13.438;2022-12-11T00:06:08;1.40;61.00
71563;DHT22;59391;52.504;13.438;2022-12-11T00:08:35;1.40;61.80
71563;DHT22;59391;52.504;13.438;2022-12-11T00:11:02;1.40;61.10
71563;DHT22;59391;52.504;13.438;2022-12-11T00:13:27;1.40;62.00
71563;DHT22;59391;52.504;13.438;2022-12-11T00:15:53;1.40;61.90
71563;DHT22;59391;52.504;13.438;2022-12-11T00:18:19;1.40;62.40
71563;DHT22;59391;52.504;13.438;2022-12-11T00:20:44;1.40;61.20
71563;DHT22;59391;52.504;13.438;2022-12-11T00:23:10;1.40;61.90
71563;DHT22;59391;52.504;13.438;2022-12-11T00:25:46;1.50;62.00
71563;DHT22;59391;52.504;13.438;2022-12-11T00:28:14;1.50;60.70
71563;DHT22;59391;52.504;13.438;2022-12-11T00:30:43;1.50;60.40
71563;DHT22;59391;52.504;13.438;2022-12-11T00:33:10;1.50;60.80
71563;DHT22;59391;52.504;13.438;2022-12-11T00:35:41;1.50;60.90
71563;DHT22;59391;52.504;13.438;2022-12-11T00:38:16;1.50;60.90
71563;DHT22;59391;52.504;13.438;2022-12-11T00:40:44;1.60;61.80
71563;DHT22;59391;52.504;13.438;2022-12-11T00:43:11;1.60;60.80
71563;DHT22;59391;52.504;13.438;2022-12-11T00:45:39;1.60;61.00
71563;DHT22;59391;52.504;13.438;2022-12-11T00:48:06;1.60;61.00
71563;DHT22;59391;52.504;13.438;2022-12-11T00:50:33;1.60;61.40
71563;DHT22;59391;52.504;13.438;2022-12-11T00:52:59;1.60;60.90
71563;DHT22;59391;52.504;13.438;2022-12-11T00:55:25;1.60;60.40
71563;DHT22;59391;52.504;13.438;2022-12-11T00:57:53;1.60;59.50
71563;DHT22;59391;52.504;13.438;2022-12-11T01:00:20;1.60;60.80
71563;DHT22;59391;52.504;13.438;2022-12-11T01:02:47;1.60;60.00
71563;DHT22;59391;52.504;13.438;2022-12-11T01:05:13;1.60;60.90
71563;DHT22;59391;52.504;13.438;2022-12-11T01:07:39;1.60;61.10
71563;DHT22;59391;52.504;13.438;2022-12-11T01:10:05;1.60;61.10
71563;DHT22;59391;52.504;13.438;2022-12-11T01:12:56;1.60;60.50
71563;DHT22;59391;52.504;13.438;2022-12-11T01:15:37;1.50;60.50
71563;DHT22;59391;52.504;13.438;2022-12-11T01:18:04;1.60;61.00
71563;DHT22;59391;52.504;13.438;2022-12-11T01:20:31;1.50;60.20
71563;DHT22;59391;52.504;13.438;2022-12-11T01:22:58;1.50;61.30
71563;DHT22;59391;52.504;13.438;2022-12-11T01:25:27;1.60;61.30
71563;DHT22;59391;52.504;13.438;2022-12-11T01:27:54;1.60;61.30
71563;DHT22;59391;52.504;13.438;2022-12-11T01:30:22;1.60;61.40
71563;DHT22;59391;52.504;13.438;2022-12-11T01:32:49;1.60;61.10
71563;DHT22;59391;52.504;13.438;2022-12-11T01:35:16;1.60;60.70
71563;DHT22;59391;52.504;13.438;2022-12-11T01:37:42;1.60;61.90
71563;DHT22;59391;52.504;13.438;2022-12-11T01:40:08;1.60;61.00
71563;DHT22;59391;52.504;13.438;2022-12-11T01:42:37;1.60;61.30
71563;DHT22;59391;52.504;13.438;2022-12-11T01:45:38;1.60;60.00
71563;DHT22;59391;52.504;13.438;2022-12-11T01:48:11;1.60;61.60
71563;DHT22;59391;52.504;13.438;2022-12-11T01:50:44;1.60;61.60
71563;DHT22;59391;52.504;13.438;2022-12-11T01:53:20;1.60;60.60
71563;DHT22;59391;52.504;13.438;2022-12-11T01:55:54;1.60;61.30
71563;DHT22;59391;52.504;13.438;2022-12-11T01:58:25;1.60;61.00
71563;DHT22;59391;52.504;13.438;2022-12-11T02:00:53;1.60;60.80
71563;DHT22;59391;52.504;13.438;2022-12-11T02:03:21;1.60;60.90
71563;DHT22;59391;52.504;13.438;2022-12-11T02:05:46;1.60;59.90
71563;DHT22;59391;52.504;13.438;2022-12-11T02:08:13;1.60;61.00
71563;DHT22;59391;52.504;13.438;2022-12-11T02:10:47;1.60;60.30
71563;DHT22;59391;52.504;13.438;2022-12-11T02:13:43;1.60;60.50
71563;DHT22;59391;52.504;13.438;2022-12-11T02:16:37;1.60;60.70
71563;DHT22;59391;52.504;13.438;2022-12-11T02:19:38;1.60;60.50
71563;DHT22;59391;52.504;13.438;2022-12-11T02:22:37;1.60;60.70
71563;DHT22;59391;52.504;13.438;2022-12-11T02:25:41;1.60;60.80
71563;DHT22;59391;52.504;13.438;2022-12-11T02:28:28;1.60;60.00
71563;DHT22;59391;52.504;13.438;2022-12-11T02:34:33;1.50;59.30
71563;DHT22;59391;52.504;13.438;2022-12-11T02:37:10;1.50;60.00
71563;DHT22;59391;52.504;13.438;2022-12-11T02:39:41;1.50;61.80
71563;DHT22;59391;52.504;13.438;2022-12-11T02:42:10;1.50;61.20
71563;DHT22;59391;52.504;13.438;2022-12-11T02:44:39;1.40;61.00
71563;DHT22;59391;52.504;13.438;2022-12-11T02:47:09;1.40;61.90
71563;DHT22;59391;52.504;13.438;2022-12-11T02:49:39;1.40;61.40
71563;DHT22;59391;52.504;13.438;2022-12-11T02:52:10;1.40;61.10
71563;DHT22;59391;52.504;13.438;2022-12-11T02:54:40;1.40;61.50
71563;DHT22;59391;52.504;13.438;2022-12-11T02:57:23;1.30;61.40
71563;DHT22;59391;52.504;13.438;2022-12-11T02:59:53;1.30;61.30
71563;DHT22;59391;52.504;13.438;2022-12-11T03:02:19;1.30;61.80
71563;DHT22;59391;52.504;13.438;2022-12-11T03:04:45;1.40;61.40
71563;DHT22;59391;52.504;13.438;2022-12-11T03:07:18;1.30;61.80
71563;DHT22;59391;52.504;13.438;2022-12-11T03:09:48;1.30;62.00
71563;DHT22;59391;52.504;13.438;2022-12-11T03:12:19;1.40;62.50
71563;DHT22;59391;52.504;13.438;2022-12-11T03:14:48;1.40;62.10
71563;DHT22;59391;52.504;13.438;2022-12-11T03:17:20;1.40;61.70
71563;DHT22;59391;52.504;13.438;2022-12-11T03:22:53;1.40;61.90
71563;DHT22;59391;52.504;13.438;2022-12-11T03:25:25;1.40;62.00
71563;DHT22;59391;52.504;13.438;2022-12-11T03:28:11;1.40;62.30
71563;DHT22;59391;52.504;13.438;2022-12-11T03:30:44;1.40;63.20
71563;DHT22;59391;52.504;13.438;2022-12-11T03:33:21;1.40;62.50
71563;DHT22;59391;52.504;13.438;2022-12-11T03:35:55;1.30;61.70
71563;DHT22;59391;52.504;13.438;2022-12-11T03:38:31;1.30;61.80
71563;DHT22;59391;52.504;13.438;2022-12-11T03:41:03;1.30;61.90
71563;DHT22;59391;52.504;13.438;2022-12-11T03:43:31;1.30;62.80
71563;DHT22;59391;52.504;13.438;2022-12-11T03:45:59;1.30;62.20
71563;DHT22;59391;52.504;13.438;2022-12-11T03:48:29;1.30;62.60
71563;DHT22;59391;52.504;13.438;2022-12-11T03:51:02;1.30;62.40
71563;DHT22;59391;52.504;13.438;2022-12-11T03:53:32;1.30;61.80
71563;DHT22;59391;52.504;13.438;2022-12-11T03:55:59;1.20;62.80
71563;DHT22;59391;52.504;13.438;2022-12-11T03:58:27;1.20;63.50
71563;DHT22;59391;52.504;13.438;2022-12-11T04:00:53;1.20;62.30
71563;DHT22;59391;52.504;13.438;2022-12-11T04:03:18;1.20;63.20
71563;DHT22;59391;52.504;13.438;2022-12-11T04:05:50;1.10;62.60
71563;DHT22;59391;52.504;13.438;2022-12-11T04:08:18;1.10;62.80
71563;DHT22;59391;52.504;13.438;2022-12-11T04:10:48;1.10;63.20
71563;DHT22;59391;52.504;13.438;2022-12-11T04:13:34;1.10;62.90
71563;DHT22;59391;52.504;13.438;2022-12-11T04:16:00;1.00;63.10
71563;DHT22;59391;52.504;13.438;2022-12-11T04:18:26;1.00;63.60
71563;DHT22;59391;52.504;13.438;2022-12-11T04:21:09;1.00;62.70
71563;DHT22;59391;52.504;13.438;2022-12-11T04:23:53;1.00;63.00
71563;DHT22;59391;52.504;13.438;2022-12-11T04:26:37;1.00;62.90
71563;DHT22;59391;52.504;13.438;2022-12-11T04:29:03;1.00;62.80
71563;DHT22;59391;52.504;13.438;2022-12-11T04:31:29;1.00;62.90
71563;DHT22;59391;52.504;13.438;2022-12-11T04:33:54;1.00;62.80
71563;DHT22;59391;52.504;13.438;2022-12-11T04:36:20;1.00;63.20
71563;DHT22;59391;52.504;13.438;2022-12-11T04:38:45;1.00;63.00
71563;DHT22;59391;52.504;13.438;2022-12-11T04:41:13;1.10;63.20
71563;DHT22;59391;52.504;13.438;2022-12-11T04:43:40;1.10;63.70
71563;DHT22;59391;52.504;13.438;2022-12-11T04:46:20;1.10;63.50
71563;DHT22;59391;52.504;13.438;2022-12-11T04:48:48;1.10;63.70
71563;DHT22;59391;52.504;13.438;2022-12-11T04:51:14;1.10;63.30
71563;DHT22;59391;52.504;13.438;2022-12-11T04:53:41;1.10;63.00
71563;DHT22;59391;52.504;13.438;2022-12-11T04:56:08;1.10;64.00
71563;DHT22;59391;52.504;13.438;2022-12-11T04:58:36;1.10;63.40
71563;DHT22;59391;52.504;13.438;2022-12-11T05:01:20;1.10;63.80
71563;DHT22;59391;52.504;13.438;2022-12-11T05:03:47;1.10;63.50
71563;DHT22;59391;52.504;13.438;2022-12-11T05:06:13;1.10;63.30
71563;DHT22;59391;52.504;13.438;2022-12-11T05:08:40;1.10;63.00
71563;DHT22;59391;52.504;13.438;2022-12-11T05:11:09;1.10;64.00
71563;DHT22;59391;52.504;13.438;2022-12-11T05:13:36;1.10;64.20
71563;DHT22;59391;52.504;13.438;2022-12-11T05:16:04;1.00;64.00
71563;DHT22;59391;52.504;13.438;2022-12-11T05:18:30;1.10;64.20
71563;DHT22;59391;52.504;13.438;2022-12-11T05:21:07;1.10;63.90
71563;DHT22;59391;52.504;13.438;2022-12-11T05:23:35;1.10;64.20
71563;DHT22;59391;52.504;13.438;2022-12-11T05:26:06;1.00;64.00
71563;DHT22;59391;52.504;13.438;2022-12-11T05:28:36;1.00;64.50
71563;DHT22;59391;52.504;13.438;2022-12-11T05:31:09;1.00;64.20
71563;DHT22;59391;52.504;13.438;2022-12-11T05:33:37;1.00;64.50
71563;DHT22;59391;52.504;13.438;2022-12-11T05:36:03;1.00;64.00
71563;DHT22;59391;52.504;13.438;2022-12-11T05:38:29;1.00;64.60
71563;DHT22;59391;52.504;13.438;2022-12-11T05:40:57;1.00;64.80
71563;DHT22;59391;52.504;13.438;2022-12-11T05:43:24;1.00;64.40
71563;DHT22;59391;52.504;13.438;2022-12-11T05:45:52;1.00;64.10
71563;DHT22;59391;52.504;13.438;2022-12-11T05:48:18;1.00;64.40
71563;DHT22;59391;52.504;13.438;2022-12-11T05:50:44;1.00;64.70
71563;DHT22;59391;52.504;13.438;2022-12-11T05:53:20;1.00;64.80
71563;DHT22;59391;52.504;13.438;2022-12-11T05:55:45;1.10;64.80
71563;DHT22;59391;52.504;13.438;2022-12-11T05:58:11;1.10;64.80
71563;DHT22;59391;52.504;13.438;2022-12-11T06:00:36;1.00;64.80
71563;DHT22;59391;52.504;13.438;2022-12-11T06:03:05;1.10;64.90
71563;DHT22;59391;52.504;13.438;2022-12-11T06:05:30;1.10;64.60
71563;DHT22;59391;52.504;13.438;2022-12-11T06:07:56;1.10;64.10
71563;DHT22;59391;52.504;13.438;2022-12-11T06:10:22;1.10;64.30
71563;DHT22;59391;52.504;13.438;2022-12-11T06:12:47;1.10;64.10
71563;DHT22;59391;52.504;13.438;2022-12-11T06:15:13;1.10;63.60
71563;DHT22;59391;52.504;13.438;2022-12-11T06:17:38;1.10;63.50
71563;DHT22;59391;52.504;13.438;2022-12-11T06:20:04;1.10;62.70
71563;DHT22;59391;52.504;13.438;2022-12-11T06:22:30;1.10;63.40
71563;DHT22;59391;52.504;13.438;2022-12-11T06:24:56;1.10;63.70
71563;DHT22;59391;52.504;13.438;2022-12-11T06:27:21;1.10;63.70
71563;DHT22;59391;52.504;13.438;2022-12-11T06:29:47;1.10;63.80
71563;DHT22;59391;52.504;13.438;2022-12-11T06:32:13;1.10;62.90
71563;DHT22;59391;52.504;13.438;2022-12-11T06:34:38;1.10;62.90
71563;DHT22;59391;52.504;13.438;2022-12-11T06:37:04;1.10;62.80
71563;DHT22;59391;52.504;13.438;2022-12-11T06:39:29;1.10;62.70
71563;DHT22;59391;52.504;13.438;2022-12-11T06:41:55;1.10;62.50
71563;DHT22;59391;52.504;13.438;2022-12-11T06:44:21;1.10;62.10
71563;DHT22;59391;52.504;13.438;2022-12-11T06:46:46;1.10;61.80
71563;DHT22;59391;52.504;13.438;2022-12-11T06:49:12;1.10;61.20
71563;DHT22;59391;52.504;13.438;2022-12-11T06:51:38;1.10;61.60
71563;DHT22;59391;52.504;13.438;2022-12-11T06:54:04;1.10;60.60
71563;DHT22;59391;52.504;13.438;2022-12-11T06:56:30;1.10;60.80
71563;DHT22;59391;52.504;13.438;2022-12-11T06:58:55;1.00;60.50
71563;DHT22;59391;52.504;13.438;2022-12-11T07:01:24;1.00;61.20
71563;DHT22;59391;52.504;13.438;2022-12-11T07:03:53;1.10;61.10
71563;DHT22;59391;52.504;13.438;2022-12-11T07:06:19;1.00;61.40
71563;DHT22;59391;52.504;13.438;2022-12-11T07:08:45;1.00;61.40
71563;DHT22;59391;52.504;13.438;2022-12-11T07:11:14;1.00;61.30
71563;DHT22;59391;52.504;13.438;2022-12-11T07:13:41;1.00;60.90
71563;DHT22;59391;52.504;13.438;2022-12-11T07:16:08;1.00;61.00
71563;DHT22;59391;52.504;13.438;2022-12-11T07:18:40;1.00;60.70
71563;DHT22;59391;52.504;13.438;2022-12-11T07:21:07;0.90;59.90
71563;DHT22;59391;52.504;13.438;2022-12-11T07:23:35;0.90;59.60
71563;DHT22;59391;52.504;13.438;2022-12-11T07:26:05;0.90;59.60
71563;DHT22;59391;52.504;13.438;2022-12-11T07:28:34;0.90;59.60
71563;DHT22;59391;52.504;13.438;2022-12-11T07:31:11;0.90;59.30
71563;DHT22;59391;52.504;13.438;2022-12-11T07:33:40;0.90;58.70
71563;DHT22;59391;52.504;13.438;2022-12-11T07:36:08;0.90;58.60
71563;DHT22;59391;52.504;13.438;2022-12-11T07:38:35;1.00;59.20
71563;DHT22;59391;52.504;13.438;2022-12-11T07:41:06;0.90;58.70
71563;DHT22;59391;52.504;13.438;2022-12-11T07:43:35;0.90;58.00
71563;DHT22;59391;52.504;13.438;2022-12-11T07:46:09;0.90;57.20
71563;DHT22;59391;52.504;13.438;2022-12-11T07:48:40;0.90;57.70
71563;DHT22;59391;52.504;13.438;2022-12-11T07:51:13;0.90;58.00
71563;DHT22;59391;52.504;13.438;2022-12-11T07:53:44;0.80;57.90
71563;DHT22;59391;52.504;13.438;2022-12-11T07:56:12;0.80;57.70
71563;DHT22;59391;52.504;13.438;2022-12-11T07:58:39;0.70;58.90
71563;DHT22;59391;52.504;13.438;2022-12-11T08:01:14;0.70;57.80
71563;DHT22;59391;52.504;13.438;2022-12-11T08:03:45;0.70;57.90
71563;DHT22;59391;52.504;13.438;2022-12-11T08:06:11;0.70;57.10
71563;DHT22;59391;52.504;13.438;2022-12-11T08:08:37;0.60;57.20
71563;DHT22;59391;52.504;13.438;2022-12-11T08:11:09;0.60;57.20
71563;DHT22;59391;52.504;13.438;2022-12-11T08:13:40;0.60;57.00
71563;DHT22;59391;52.504;13.438;2022-12-11T08:16:12;0.60;57.10
71563;DHT22;59391;52.504;13.438;2022-12-11T08:18:39;0.60;56.60
71563;DHT22;59391;52.504;13.438;2022-12-11T08:21:07;0.60;56.50
71563;DHT22;59391;52.504;13.438;2022-12-11T08:23:37;0.50;56.60
71563;DHT22;59391;52.504;13.438;2022-12-11T08:26:05;0.60;57.50
71563;DHT22;59391;52.504;13.438;2022-12-11T08:28:38;0.60;57.30
71563;DHT22;59391;52.504;13.438;2022-12-11T08:31:09;0.60;57.60
71563;DHT22;59391;52.504;13.438;2022-12-11T08:33:37;0.60;57.70
71563;DHT22;59391;52.504;13.438;2022-12-11T08:36:05;0.60;58.00
71563;DHT22;59391;52.504;13.438;2022-12-11T08:38:34;0.60;57.20
71563;DHT22;59391;52.504;13.438;2022-12-11T08:43:41;0.70;58.10
71563;DHT22;59391;52.504;13.438;2022-12-11T08:46:07;0.70;58.20
71563;DHT22;59391;52.504;13.438;2022-12-11T08:48:34;0.70;57.80
71563;DHT22;59391;52.504;13.438;2022-12-11T08:51:02;0.70;57.90
71563;DHT22;59391;52.504;13.438;2022-12-11T08:53:31;0.70;57.10
71563;DHT22;59391;52.504;13.438;2022-12-11T08:56:05;0.70;57.10
71563;DHT22;59391;52.504;13.438;2022-12-11T08:58:32;0.80;57.40
71563;DHT22;59391;52.504;13.438;2022-12-11T09:00:58;0.80;57.30
71563;DHT22;59391;52.504;13.438;2022-12-11T09:03:24;0.80;57.30
71563;DHT22;59391;52.504;13.438;2022-12-11T09:05:50;0.80;57.80
71563;DHT22;59391;52.504;13.438;2022-12-11T09:08:16;0.90;57.90
71563;DHT22;59391;52.504;13.438;2022-12-11T09:10:41;0.90;58.20
71563;DHT22;59391;52.504;13.438;2022-12-11T09:13:07;0.90;58.30
71563;DHT22;59391;52.504;13.438;2022-12-11T09:15:33;1.00;57.70
71563;DHT22;59391;52.504;13.438;2022-12-11T09:17:58;1.00;57.20
71563;DHT22;59391;52.504;13.438;2022-12-11T09:20:24;1.00;56.70
71563;DHT22;59391;52.504;13.438;2022-12-11T09:22:50;1.00;56.40
71563;DHT22;59391;52.504;13.438;2022-12-11T09:25:15;1.00;56.80
71563;DHT22;59391;52.504;13.438;2022-12-11T09:27:41;1.10;57.10
71563;DHT22;59391;52.504;13.438;2022-12-11T09:30:07;1.10;57.40
71563;DHT22;59391;52.504;13.438;2022-12-11T09:32:33;1.10;57.40
71563;DHT22;59391;52.504;13.438;2022-12-11T09:34:59;1.10;56.60
71563;DHT22;59391;52.504;13.438;2022-12-11T09:37:24;1.10;57.40
71563;DHT22;59391;52.504;13.438;2022-12-11T09:39:50;1.10;57.40
71563;DHT22;59391;52.504;13.438;2022-12-11T09:42:27;1.10;58.00
71563;DHT22;59391;52.504;13.438;2022-12-11T09:45:09;1.10;57.40
71563;DHT22;59391;52.504;13.438;2022-12-11T09:47:44;1.10;57.60
71563;DHT22;59391;52.504;13.438;2022-12-11T09:50:22;1.10;57.40
71563;DHT22;59391;52.504;13.438;2022-12-11T09:53:03;1.10;58.20
71563;DHT22;59391;52.504;13.438;2022-12-11T09:55:54;1.10;57.70
71563;DHT22;59391;52.504;13.438;2022-12-11T10:01:50;1.00;58.20
71563;DHT22;59391;52.504;13.438;2022-12-11T10:04:50;1.00;57.80
71563;DHT22;59391;52.504;13.438;2022-12-11T10:08:02;1.00;58.50
71563;DHT22;59391;52.504;13.438;2022-12-11T10:13:41;1.00;58.00
71563;DHT22;59391;52.504;13.438;2022-12-11T10:16:39;0.90;57.90
71563;DHT22;59391;52.504;13.438;2022-12-11T10:19:17;0.90;57.70
71563;DHT22;59391;52.504;13.438;2022-12-11T10:21:48;0.90;58.20
71563;DHT22;59391;52.504;13.438;2022-12-11T10:24:21;0.90;58.50
71563;DHT22;59391;52.504;13.438;2022-12-11T10:27:15;1.00;58.70
71563;DHT22;59391;52.504;13.438;2022-12-11T10:29:45;1.00;58.80
71563;DHT22;59391;52.504;13.438;2022-12-11T10:32:21;1.00;59.30
71563;DHT22;59391;52.504;13.438;2022-12-11T10:34:54;1.00;59.00
71563;DHT22;59391;52.504;13.438;2022-12-11T10:37:25;0.90;58.90
71563;DHT22;59391;52.504;13.438;2022-12-11T10:39:51;0.90;59.00
71563;DHT22;59391;52.504;13.438;2022-12-11T10:42:20;0.90;58.50
71563;DHT22;59391;52.504;13.438;2022-12-11T10:45:02;0.90;59.10
71563;DHT22;59391;52.504;13.438;2022-12-11T10:47:29;0.90;59.10
71563;DHT22;59391;52.504;13.438;2022-12-11T10:50:00;0.90;59.40
71563;DHT22;59391;52.504;13.438;2022-12-11T10:55:05;0.90;59.20
71563;DHT22;59391;52.504;13.438;2022-12-11T10:57:42;0.90;59.20
71563;DHT22;59391;52.504;13.438;2022-12-11T11:00:35;0.90;59.20
71563;DHT22;59391;52.504;13.438;2022-12-11T11:03:06;0.90;59.00
71563;DHT22;59391;52.504;13.438;2022-12-11T11:05:45;0.90;59.20
71563;DHT22;59391;52.504;13.438;2022-12-11T11:08:20;1.00;59.60
71563;DHT22;59391;52.504;13.438;2022-12-11T11:10:54;0.90;59.90
71563;DHT22;59391;52.504;13.438;2022-12-11T11:13:23;0.90;59.60
71563;DHT22;59391;52.504;13.438;2022-12-11T11:16:03;1.00;59.30
71563;DHT22;59391;52.504;13.438;2022-12-11T11:18:32;1.00;59.50
71563;DHT22;59391;52.504;13.438;2022-12-11T11:21:00;1.00;59.30
71563;DHT22;59391;52.504;13.438;2022-12-11T11:23:26;1.00;59.20
71563;DHT22;59391;52.504;13.438;2022-12-11T11:25:56;1.00;59.10
71563;DHT22;59391;52.504;13.438;2022-12-11T11:28:26;1.00;60.10
71563;DHT22;59391;52.504;13.438;2022-12-11T11:31:14;1.00;59.30
71563;DHT22;59391;52.504;13.438;2022-12-11T11:34:04;1.00;60.10
71563;DHT22;59391;52.504;13.438;2022-12-11T11:36:34;1.00;59.60
71563;DHT22;59391;52.504;13.438;2022-12-11T11:39:33;1.00;59.80
71563;DHT22;59391;52.504;13.438;2022-12-11T11:42:21;1.00;60.10
71563;DHT22;59391;52.504;13.438;2022-12-11T11:45:10;1.00;59.30
71563;DHT22;59391;52.504;13.438;2022-12-11T11:47:50;1.00;59.70
71563;DHT22;59391;52.504;13.438;2022-12-11T11:50:29;1.00;59.80
71563;DHT22;59391;52.504;13.438;2022-12-11T11:53:16;1.00;59.90
71563;DHT22;59391;52.504;13.438;2022-12-11T11:56:04;1.00;60.10
71563;DHT22;59391;52.504;13.438;2022-12-11T11:59:06;1.10;59.90
71563;DHT22;59391;52.504;13.438;2022-12-11T12:01:42;1.10;60.00
71563;DHT22;59391;52.504;13.438;2022-12-11T12:04:08;1.10;59.60
71563;DHT22;59391;52.504;13.438;2022-12-11T12:10:21;1.10;59.80
71563;DHT22;59391;52.504;13.438;2022-12-11T12:13:06;1.10;59.70
71563;DHT22;59391;52.504;13.438;2022-12-11T12:15:55;1.10;59.80
71563;DHT22;59391;52.504;13.438;2022-12-11T12:18:38;1.10;60.40
71563;DHT22;59391;52.504;13.438;2022-12-11T12:24:34;1.10;59.90
71563;DHT22;59391;52.504;13.438;2022-12-11T12:27:54;1.10;59.60
71563;DHT22;59391;52.504;13.438;2022-12-11T12:33:49;1.20;60.40
71563;DHT22;59391;52.504;13.438;2022-12-11T12:39:32;1.30;60.30
71563;DHT22;59391;52.504;13.438;2022-12-11T12:42:34;1.30;60.00
71563;DHT22;59391;52.504;13.438;2022-12-11T12:45:25;1.40;60.40
71563;DHT22;59391;52.504;13.438;2022-12-11T12:48:03;1.40;59.90
71563;DHT22;59391;52.504;13.438;2022-12-11T12:50:37;1.40;60.00
71563;DHT22;59391;52.504;13.438;2022-12-11T12:53:12;1.50;59.80
71563;DHT22;59391;52.504;13.438;2022-12-11T12:55:42;1.50;59.70
71563;DHT22;59391;52.504;13.438;2022-12-11T12:58:38;1.50;60.10
71563;DHT22;59391;52.504;13.438;2022-12-11T13:03:58;1.50;58.50
71563;DHT22;59391;52.504;13.438;2022-12-11T13:06:41;1.50;60.00
71563;DHT22;59391;52.504;13.438;2022-12-11T13:09:16;1.50;59.50
71563;DHT22;59391;52.504;13.438;2022-12-11T13:11:54;1.50;59.90
71563;DHT22;59391;52.504;13.438;2022-12-11T13:14:31;1.50;59.80
71563;DHT22;59391;52.504;13.438;2022-12-11T13:19:45;1.50;59.40
71563;DHT22;59391;52.504;13.438;2022-12-11T13:27:38;1.50;60.00
71563;DHT22;59391;52.504;13.438;2022-12-11T13:32:43;1.50;59.70
71563;DHT22;59391;52.504;13.438;2022-12-11T13:35:32;1.50;59.90
71563;DHT22;59391;52.504;13.438;2022-12-11T13:38:05;1.50;60.20
71563;DHT22;59391;52.504;13.438;2022-12-11T13:40:40;1.50;60.40
71563;DHT22;59391;52.504;13.438;2022-12-11T13:43:22;1.50;60.20
71563;DHT22;59391;52.504;13.438;2022-12-11T13:45:54;1.50;60.20
71563;DHT22;59391;52.504;13.438;2022-12-11T13:48:28;1.50;60.40
71563;DHT22;59391;52.504;13.438;2022-12-11T13:51:02;1.60;60.30
71563;DHT22;59391;52.504;13.438;2022-12-11T13:53:29;1.60;60.20
71563;DHT22;59391;52.504;13.438;2022-12-11T13:56:04;1.60;60.60
71563;DHT22;59391;52.504;13.438;2022-12-11T13:58:37;1.60;60.60
71563;DHT22;59391;52.504;13.438;2022-12-11T14:01:13;1.60;60.50
71563;DHT22;59391;52.504;13.438;2022-12-11T14:03:56;1.60;60.40
71563;DHT22;59391;52.504;13.438;2022-12-11T14:06:25;1.60;60.70
71563;DHT22;59391;52.504;13.438;2022-12-11T14:08:55;1.50;60.60
71563;DHT22;59391;52.504;13.438;2022-12-11T14:11:26;1.60;60.70
71563;DHT22;59391;52.504;13.438;2022-12-11T14:13:57;1.60;60.50
71563;DHT22;59391;52.504;13.438;2022-12-11T14:16:26;1.60;60.60
71563;DHT22;59391;52.504;13.438;2022-12-11T14:18:54;1.50;60.40
71563;DHT22;59391;52.504;13.438;2022-12-11T14:21:25;1.50;60.60
71563;DHT22;59391;52.504;13.438;2022-12-11T14:23:53;1.50;60.70
71563;DHT22;59391;52.504;13.438;2022-12-11T14:26:34;1.50;61.40
71563;DHT22;59391;52.504;13.438;2022-12-11T14:29:03;1.50;60.80
71563;DHT22;59391;52.504;13.438;2022-12-11T14:31:36;1.50;60.70
71563;DHT22;59391;52.504;13.438;2022-12-11T14:36:58;1.40;61.30
71563;DHT22;59391;52.504;13.438;2022-12-11T14:39:31;1.40;61.40
71563;DHT22;59391;52.504;13.438;2022-12-11T14:42:06;1.40;61.10
71563;DHT22;59391;52.504;13.438;2022-12-11T14:47:20;1.40;61.30
71563;DHT22;59391;52.504;13.438;2022-12-11T14:50:07;1.40;61.70
71563;DHT22;59391;52.504;13.438;2022-12-11T14:52:51;1.40;61.90
71563;DHT22;59391;52.504;13.438;2022-12-11T14:55:26;1.40;61.60
71563;DHT22;59391;52.504;13.438;2022-12-11T14:57:57;1.40;61.20
71563;DHT22;59391;52.504;13.438;2022-12-11T15:00:31;1.40;61.60
71563;DHT22;59391;52.504;13.438;2022-12-11T15:03:18;1.40;61.80
71563;DHT22;59391;52.504;13.438;2022-12-11T15:05:52;1.40;62.00
71563;DHT22;59391;52.504;13.438;2022-12-11T15:08:28;1.40;62.40
71563;DHT22;59391;52.504;13.438;2022-12-11T15:11:02;1.40;62.50
71563;DHT22;59391;52.504;13.438;2022-12-11T15:13:55;1.40;62.30
71563;DHT22;59391;52.504;13.438;2022-12-11T15:16:25;1.40;62.40
71563;DHT22;59391;52.504;13.438;2022-12-11T15:18:53;1.40;62.80
71563;DHT22;59391;52.504;13.438;2022-12-11T15:21:29;1.50;62.50
71563;DHT22;59391;52.504;13.438;2022-12-11T15:23:58;1.40;62.50
71563;DHT22;59391;52.504;13.438;2022-12-11T15:26:43;1.50;62.30
71563;DHT22;59391;52.504;13.438;2022-12-11T15:32:11;1.40;62.20
71563;DHT22;59391;52.504;13.438;2022-12-11T15:34:54;1.50;62.90
71563;DHT22;59391;52.504;13.438;2022-12-11T15:40:02;1.40;62.70
71563;DHT22;59391;52.504;13.438;2022-12-11T15:42:31;1.40;62.40
71563;DHT22;59391;52.504;13.438;2022-12-11T15:45:01;1.40;62.50
71563;DHT22;59391;52.504;13.438;2022-12-11T15:47:30;1.40;62.40
71563;DHT22;59391;52.504;13.438;2022-12-11T15:50:22;1.40;62.50
71563;DHT22;59391;52.504;13.438;2022-12-11T15:52:52;1.40;62.90
71563;DHT22;59391;52.504;13.438;2022-12-11T15:55:22;1.40;63.00
71563;DHT22;59391;52.504;13.438;2022-12-11T15:57:54;1.40;63.10
71563;DHT22;59391;52.504;13.438;2022-12-11T16:00:23;1.30;62.20
71563;DHT22;59391;52.504;13.438;2022-12-11T16:02:49;1.30;62.30
71563;DHT22;59391;52.504;13.438;2022-12-11T16:05:16;1.30;62.80
71563;DHT22;59391;52.504;13.438;2022-12-11T16:07:44;1.30;62.80
71563;DHT22;59391;52.504;13.438;2022-12-11T16:10:14;1.30;63.00
71563;DHT22;59391;52.504;13.438;2022-12-11T16:13:02;1.30;62.90
71563;DHT22;59391;52.504;13.438;2022-12-11T16:15:28;1.30;63.00
71563;DHT22;59391;52.504;13.438;2022-12-11T16:18:12;1.30;63.80
71563;DHT22;59391;52.504;13.438;2022-12-11T16:20:43;1.30;63.20
71563;DHT22;59391;52.504;13.438;2022-12-11T16:23:11;1.30;63.00
71563;DHT22;59391;52.504;13.438;2022-12-11T16:25:42;1.30;63.10
71563;DHT22;59391;52.504;13.438;2022-12-11T16:28:11;1.30;63.40
71563;DHT22;59391;52.504;13.438;2022-12-11T16:30:38;1.30;63.30
71563;DHT22;59391;52.504;13.438;2022-12-11T16:33:05;1.30;63.60
71563;DHT22;59391;52.504;13.438;2022-12-11T16:35:31;1.30;63.50
71563;DHT22;59391;52.504;13.438;2022-12-11T16:37:57;1.30;63.80
71563;DHT22;59391;52.504;13.438;2022-12-11T16:40:23;1.30;63.80
71563;DHT22;59391;52.504;13.438;2022-12-11T16:42:50;1.30;64.00
71563;DHT22;59391;52.504;13.438;2022-12-11T16:45:21;1.30;63.20
71563;DHT22;59391;52.504;13.438;2022-12-11T16:47:49;1.40;63.70
71563;DHT22;59391;52.504;13.438;2022-12-11T16:50:15;1.30;63.60
71563;DHT22;59391;52.504;13.438;2022-12-11T16:52:42;1.30;63.70
71563;DHT22;59391;52.504;13.438;2022-12-11T16:55:10;1.30;63.30
71563;DHT22;59391;52.504;13.438;2022-12-11T16:57:37;1.30;63.60